sensor_id;sensor_type;location;lat;lon;timestamp;pressure;altitude;pressure_sealevel;temperature;humidity
62438;BME280;48481;0.000;0.000;2023-05-19T00:01:42;102519.84;;;9.65;56.71
62438;BME280;48481;0.000;0.000;2023-05-19T00:04:12;102510.72;;;9.69;56.41
62438;BME280;48481;0.000;0.000;2023-05-19T00:06:39;102509.94;;;9.80;55.94
62438;BME280;48481;0.000;0.000;2023-05-19T00:09:07;102516.19;;;9.79;55.74
62438;BME280;48481;0.000;0.000;2023-05-19T00:11:34;102519.13;;;9.63;56.20
62438;BME280;48481;0.000;0.000;2023-05-19T00:14:02;102517.03;;;9.79;55.62
62438;BME280;48481;0.000;0.000;2023-05-19T00:16:29;102508.31;;;9.66;56.16
62438;BME280;48481;0.000;0.000;2023-05-19T00:18:57;102514.56;;;9.54;57.03
62438;BME280;48481;0.000;0.000;2023-05-19T00:21:24;102507.31;;;9.34;58.13
62438;BME280;48481;0.000;0.000;2023-05-19T00:23:49;102507.84;;;9.15;59.10
62438;BME280;48481;0.000;0.000;2023-05-19T00:26:14;102515.91;;;9.25;59.03
62438;BME280;48481;0.000;0.000;2023-05-19T00:28:40;102513.34;;;9.47;58.83
62438;BME280;48481;0.000;0.000;2023-05-19T00:31:05;102519.13;;;9.52;58.79
62438;BME280;48481;0.000;0.000;2023-05-19T00:33:31;102519.94;;;9.41;59.42
62438;BME280;48481;0.000;0.000;2023-05-19T00:35:58;102511.50;;;9.36;59.86
62438;BME280;48481;0.000;0.000;2023-05-19T00:38:23;102504.56;;;9.46;59.76
62438;BME280;48481;0.000;0.000;2023-05-19T00:40:49;102501.53;;;9.29;60.24
62438;BME280;48481;0.000;0.000;2023-05-19T00:43:14;102497.06;;;9.18;60.68
62438;BME280;48481;0.000;0.000;2023-05-19T00:45:40;102497.00;;;9.53;59.88
62438;BME280;48481;0.000;0.000;2023-05-19T00:48:05;102493.84;;;9.37;60.22
62438;BME280;48481;0.000;0.000;2023-05-19T00:50:31;102505.44;;;9.12;61.10
62438;BME280;48481;0.000;0.000;2023-05-19T00:52:56;102501.75;;;9.26;60.65
62438;BME280;48481;0.000;0.000;2023-05-19T00:55:26;102498.41;;;9.35;60.53
62438;BME280;48481;0.000;0.000;2023-05-19T00:57:53;102492.84;;;9.15;61.33
62438;BME280;48481;0.000;0.000;2023-05-19T01:00:18;102503.94;;;9.32;60.38
62438;BME280;48481;0.000;0.000;2023-05-19T01:02:44;102499.25;;;9.35;60.43
62438;BME280;48481;0.000;0.000;2023-05-19T01:05:10;102498.41;;;9.35;60.38
62438;BME280;48481;0.000;0.000;2023-05-19T01:07:36;102497.16;;;9.16;61.05
62438;BME280;48481;0.000;0.000;2023-05-19T01:10:02;102499.84;;;9.28;60.88
62438;BME280;48481;0.000;0.000;2023-05-19T01:12:28;102499.34;;;9.23;60.89
62438;BME280;48481;0.000;0.000;2023-05-19T01:14:54;102503.84;;;9.44;60.46
62438;BME280;48481;0.000;0.000;2023-05-19T01:17:54;102509.75;;;9.48;60.04
62438;BME280;48481;0.000;0.000;2023-05-19T01:20:30;102503.97;;;9.54;59.25
62438;BME280;48481;0.000;0.000;2023-05-19T01:28:57;102503.22;;;9.30;59.51
62438;BME280;48481;0.000;0.000;2023-05-19T01:31:27;102502.75;;;9.36;59.36
62438;BME280;48481;0.000;0.000;2023-05-19T01:33:54;102500.56;;;9.30;59.44
62438;BME280;48481;0.000;0.000;2023-05-19T01:36:21;102505.84;;;9.30;59.75
62438;BME280;48481;0.000;0.000;2023-05-19T01:38:52;102497.16;;;9.16;60.26
62438;BME280;48481;0.000;0.000;2023-05-19T01:41:19;102502.84;;;8.99;60.85
62438;BME280;48481;0.000;0.000;2023-05-19T01:43:46;102503.75;;;8.87;61.42
62438;BME280;48481;0.000;0.000;2023-05-19T01:46:12;102507.63;;;8.94;61.59
62438;BME280;48481;0.000;0.000;2023-05-19T01:48:38;102512.16;;;8.92;61.37
62438;BME280;48481;0.000;0.000;2023-05-19T01:51:04;102511.72;;;8.98;61.33
62438;BME280;48481;0.000;0.000;2023-05-19T01:53:29;102514.13;;;9.01;61.22
62438;BME280;48481;0.000;0.000;2023-05-19T01:55:55;102515.16;;;9.11;60.76
62438;BME280;48481;0.000;0.000;2023-05-19T01:58:47;102512.06;;;9.17;60.89
62438;BME280;48481;0.000;0.000;2023-05-19T02:01:36;102523.47;;;8.94;61.88
62438;BME280;48481;0.000;0.000;2023-05-19T02:04:15;102524.19;;;8.96;61.80
62438;BME280;48481;0.000;0.000;2023-05-19T02:09:32;102528.06;;;8.79;62.65
62438;BME280;48481;0.000;0.000;2023-05-19T02:12:09;102520.53;;;8.86;62.68
62438;BME280;48481;0.000;0.000;2023-05-19T02:17:08;102512.94;;;8.81;63.13
62438;BME280;48481;0.000;0.000;2023-05-19T02:19:37;102515.59;;;8.81;63.26
62438;BME280;48481;0.000;0.000;2023-05-19T02:22:04;102512.44;;;8.76;63.69
62438;BME280;48481;0.000;0.000;2023-05-19T02:24:30;102513.34;;;8.88;63.40
62438;BME280;48481;0.000;0.000;2023-05-19T02:26:55;102514.19;;;8.88;63.38
62438;BME280;48481;0.000;0.000;2023-05-19T02:29:21;102500.66;;;8.93;63.31
62438;BME280;48481;0.000;0.000;2023-05-19T02:31:46;102499.06;;;8.90;63.82
62438;BME280;48481;0.000;0.000;2023-05-19T02:34:12;102500.53;;;8.95;63.60
62438;BME280;48481;0.000;0.000;2023-05-19T02:36:38;102507.34;;;8.86;63.62
62438;BME280;48481;0.000;0.000;2023-05-19T02:39:05;102502.28;;;8.83;63.94
62438;BME280;48481;0.000;0.000;2023-05-19T02:41:31;102497.00;;;8.83;64.13
62438;BME280;48481;0.000;0.000;2023-05-19T02:43:56;102499.59;;;8.72;64.49
62438;BME280;48481;0.000;0.000;2023-05-19T02:46:22;102502.72;;;8.77;64.58
62438;BME280;48481;0.000;0.000;2023-05-19T02:48:47;102508.53;;;8.82;64.26
62438;BME280;48481;0.000;0.000;2023-05-19T02:51:13;102503.91;;;8.97;63.99
62438;BME280;48481;0.000;0.000;2023-05-19T02:53:38;102503.13;;;8.83;64.41
62438;BME280;48481;0.000;0.000;2023-05-19T02:56:03;102498.19;;;8.79;64.81
62438;BME280;48481;0.000;0.000;2023-05-19T02:58:29;102502.00;;;8.75;64.93
62438;BME280;48481;0.000;0.000;2023-05-19T03:00:54;102498.69;;;8.84;64.90
62438;BME280;48481;0.000;0.000;2023-05-19T03:03:20;102496.84;;;8.73;65.35
62438;BME280;48481;0.000;0.000;2023-05-19T03:05:45;102498.06;;;8.80;64.82
62438;BME280;48481;0.000;0.000;2023-05-19T03:08:11;102484.53;;;8.61;65.88
62438;BME280;48481;0.000;0.000;2023-05-19T03:10:37;102492.06;;;8.54;66.10
62438;BME280;48481;0.000;0.000;2023-05-19T03:13:02;102488.81;;;8.75;65.67
62438;BME280;48481;0.000;0.000;2023-05-19T03:15:28;102489.69;;;8.63;66.28
62438;BME280;48481;0.000;0.000;2023-05-19T03:17:53;102492.13;;;8.66;66.00
62438;BME280;48481;0.000;0.000;2023-05-19T03:20:19;102493.53;;;8.58;66.58
62438;BME280;48481;0.000;0.000;2023-05-19T03:22:44;102491.66;;;8.72;66.26
62438;BME280;48481;0.000;0.000;2023-05-19T03:25:09;102484.13;;;8.54;66.94
62438;BME280;48481;0.000;0.000;2023-05-19T03:27:35;102486.50;;;8.46;66.94
62438;BME280;48481;0.000;0.000;2023-05-19T03:30:00;102480.44;;;8.57;66.92
62438;BME280;48481;0.000;0.000;2023-05-19T03:32:26;102476.09;;;8.80;66.02
62438;BME280;48481;0.000;0.000;2023-05-19T03:34:51;102477.06;;;8.79;66.47
62438;BME280;48481;0.000;0.000;2023-05-19T03:37:16;102480.38;;;8.70;66.70
62438;BME280;48481;0.000;0.000;2023-05-19T03:39:42;102480.56;;;8.79;66.47
62438;BME280;48481;0.000;0.000;2023-05-19T03:42:07;102484.19;;;8.89;66.13
62438;BME280;48481;0.000;0.000;2023-05-19T03:44:33;102481.22;;;8.94;65.89
62438;BME280;48481;0.000;0.000;2023-05-19T03:46:58;102487.16;;;8.85;66.67
62438;BME280;48481;0.000;0.000;2023-05-19T03:49:24;102492.94;;;8.90;66.42
62438;BME280;48481;0.000;0.000;2023-05-19T03:51:49;102491.81;;;9.05;67.07
62438;BME280;48481;0.000;0.000;2023-05-19T03:54:15;102489.13;;;9.18;65.78
62438;BME280;48481;0.000;0.000;2023-05-19T03:56:41;102489.41;;;9.37;64.99
62438;BME280;48481;0.000;0.000;2023-05-19T03:59:07;102486.41;;;9.42;64.91
62438;BME280;48481;0.000;0.000;2023-05-19T04:01:35;102488.09;;;9.32;65.54
62438;BME280;48481;0.000;0.000;2023-05-19T04:04:01;102489.06;;;9.42;65.17
62438;BME280;48481;0.000;0.000;2023-05-19T04:06:26;102499.50;;;9.32;65.79
62438;BME280;48481;0.000;0.000;2023-05-19T04:08:52;102497.38;;;9.60;64.99
62438;BME280;48481;0.000;0.000;2023-05-19T04:11:17;102501.22;;;9.56;64.83
62438;BME280;48481;0.000;0.000;2023-05-19T04:13:44;102501.81;;;9.59;64.83
62438;BME280;48481;0.000;0.000;2023-05-19T04:16:09;102501.13;;;9.68;64.45
62438;BME280;48481;0.000;0.000;2023-05-19T04:18:35;102509.56;;;9.84;64.53
62438;BME280;48481;0.000;0.000;2023-05-19T04:21:00;102501.81;;;9.59;64.50
62438;BME280;48481;0.000;0.000;2023-05-19T04:23:26;102493.19;;;9.68;64.41
62438;BME280;48481;0.000;0.000;2023-05-19T04:25:51;102505.78;;;9.65;64.23
62438;BME280;48481;0.000;0.000;2023-05-19T04:28:18;102497.16;;;9.63;65.53
62438;BME280;48481;0.000;0.000;2023-05-19T04:30:43;102505.78;;;9.65;64.68
62438;BME280;48481;0.000;0.000;2023-05-19T04:33:11;102503.50;;;9.60;64.62
62438;BME280;48481;0.000;0.000;2023-05-19T04:35:37;102496.59;;;9.81;64.43
62438;BME280;48481;0.000;0.000;2023-05-19T04:38:04;102498.50;;;9.79;64.33
62438;BME280;48481;0.000;0.000;2023-05-19T04:40:29;102504.59;;;9.58;65.10
62438;BME280;48481;0.000;0.000;2023-05-19T04:42:56;102502.19;;;9.54;65.08
62438;BME280;48481;0.000;0.000;2023-05-19T04:45:22;102504.00;;;9.65;65.15
62438;BME280;48481;0.000;0.000;2023-05-19T04:47:48;102496.41;;;9.61;64.89
62438;BME280;48481;0.000;0.000;2023-05-19T04:50:13;102511.50;;;9.82;64.25
62438;BME280;48481;0.000;0.000;2023-05-19T04:52:40;102511.97;;;9.99;63.78
62438;BME280;48481;0.000;0.000;2023-05-19T04:55:06;102501.75;;;10.05;63.62
62438;BME280;48481;0.000;0.000;2023-05-19T04:57:32;102498.75;;;10.10;63.05
62438;BME280;48481;0.000;0.000;2023-05-19T04:59:57;102501.50;;;10.20;62.89
62438;BME280;48481;0.000;0.000;2023-05-19T05:02:27;102498.03;;;10.30;62.01
62438;BME280;48481;0.000;0.000;2023-05-19T05:04:52;102513.19;;;10.39;61.60
62438;BME280;48481;0.000;0.000;2023-05-19T05:07:19;102505.63;;;10.46;61.41
62438;BME280;48481;0.000;0.000;2023-05-19T05:09:46;102509.47;;;10.42;61.31
62438;BME280;48481;0.000;0.000;2023-05-19T05:12:13;102508.16;;;10.47;61.32
62438;BME280;48481;0.000;0.000;2023-05-19T05:14:39;102502.47;;;10.18;61.91
62438;BME280;48481;0.000;0.000;2023-05-19T05:17:04;102510.06;;;10.45;61.38
62438;BME280;48481;0.000;0.000;2023-05-19T05:19:30;102508.84;;;10.38;61.38
62438;BME280;48481;0.000;0.000;2023-05-19T05:21:56;102501.88;;;10.48;61.37
62438;BME280;48481;0.000;0.000;2023-05-19T05:24:22;102514.72;;;10.64;60.83
62438;BME280;48481;0.000;0.000;2023-05-19T05:26:48;102511.69;;;10.69;60.72
62438;BME280;48481;0.000;0.000;2023-05-19T05:29:13;102503.03;;;10.67;60.11
62438;BME280;48481;0.000;0.000;2023-05-19T05:31:39;102508.81;;;10.72;59.91
62438;BME280;48481;0.000;0.000;2023-05-19T05:34:04;102506.78;;;10.64;60.22
62438;BME280;48481;0.000;0.000;2023-05-19T05:36:30;102507.34;;;10.79;59.74
62438;BME280;48481;0.000;0.000;2023-05-19T05:38:56;102496.88;;;10.77;60.27
62438;BME280;48481;0.000;0.000;2023-05-19T05:41:21;102506.28;;;10.70;60.18
62438;BME280;48481;0.000;0.000;2023-05-19T05:43:46;102512.69;;;10.57;60.34
62438;BME280;48481;0.000;0.000;2023-05-19T05:46:12;102507.47;;;10.77;60.36
62438;BME280;48481;0.000;0.000;2023-05-19T05:48:38;102510.06;;;10.89;59.78
62438;BME280;48481;0.000;0.000;2023-05-19T05:51:04;102507.03;;;10.93;58.97
62438;BME280;48481;0.000;0.000;2023-05-19T05:53:32;102506.34;;;10.91;59.77
62438;BME280;48481;0.000;0.000;2023-05-19T05:56:01;102508.59;;;11.07;58.68
62438;BME280;48481;0.000;0.000;2023-05-19T05:58:27;102505.63;;;11.42;57.93
62438;BME280;48481;0.000;0.000;2023-05-19T06:00:52;102504.00;;;11.71;56.22
62438;BME280;48481;0.000;0.000;2023-05-19T06:03:21;102512.06;;;11.70;56.51
62438;BME280;48481;0.000;0.000;2023-05-19T06:05:48;102511.97;;;11.51;57.82
62438;BME280;48481;0.000;0.000;2023-05-19T06:08:13;102511.56;;;11.55;57.46
62438;BME280;48481;0.000;0.000;2023-05-19T06:10:39;102516.03;;;11.55;57.39
62438;BME280;48481;0.000;0.000;2023-05-19T06:13:05;102507.63;;;11.70;57.11
62438;BME280;48481;0.000;0.000;2023-05-19T06:15:31;102508.09;;;11.75;57.08
62438;BME280;48481;0.000;0.000;2023-05-19T06:17:56;102505.22;;;11.67;57.22
62438;BME280;48481;0.000;0.000;2023-05-19T06:20:22;102507.06;;;11.88;57.25
62438;BME280;48481;0.000;0.000;2023-05-19T06:22:47;102513.94;;;12.00;56.17
62438;BME280;48481;0.000;0.000;2023-05-19T06:25:12;102512.19;;;11.80;56.79
62438;BME280;48481;0.000;0.000;2023-05-19T06:27:38;102508.97;;;11.65;56.63
62438;BME280;48481;0.000;0.000;2023-05-19T06:30:04;102510.06;;;11.62;56.68
62438;BME280;48481;0.000;0.000;2023-05-19T06:32:30;102514.63;;;11.92;56.36
62438;BME280;48481;0.000;0.000;2023-05-19T06:34:55;102504.53;;;12.26;55.46
62438;BME280;48481;0.000;0.000;2023-05-19T06:37:21;102504.38;;;12.18;55.42
62438;BME280;48481;0.000;0.000;2023-05-19T06:39:56;102517.09;;;12.15;55.34
62438;BME280;48481;0.000;0.000;2023-05-19T06:42:22;102511.84;;;11.94;55.46
62438;BME280;48481;0.000;0.000;2023-05-19T06:44:49;102506.22;;;11.87;55.90
62438;BME280;48481;0.000;0.000;2023-05-19T06:47:15;102506.34;;;11.86;56.24
62438;BME280;48481;0.000;0.000;2023-05-19T06:49:41;102506.84;;;12.00;55.81
62438;BME280;48481;0.000;0.000;2023-05-19T06:52:06;102512.75;;;11.83;56.01
62438;BME280;48481;0.000;0.000;2023-05-19T06:54:32;102516.78;;;12.08;54.93
62438;BME280;48481;0.000;0.000;2023-05-19T06:56:57;102513.03;;;12.11;55.01
62438;BME280;48481;0.000;0.000;2023-05-19T06:59:22;102513.56;;;12.45;54.35
62438;BME280;48481;0.000;0.000;2023-05-19T07:01:48;102518.09;;;12.73;53.65
62438;BME280;48481;0.000;0.000;2023-05-19T07:04:13;102521.16;;;12.68;53.10
62438;BME280;48481;0.000;0.000;2023-05-19T07:06:39;102514.19;;;12.87;53.45
62438;BME280;48481;0.000;0.000;2023-05-19T07:09:04;102523.53;;;12.72;53.57
62438;BME280;48481;0.000;0.000;2023-05-19T07:11:30;102526.31;;;12.60;54.32
62438;BME280;48481;0.000;0.000;2023-05-19T07:13:56;102521.84;;;12.61;53.51
62438;BME280;48481;0.000;0.000;2023-05-19T07:16:21;102519.81;;;13.03;52.56
62438;BME280;48481;0.000;0.000;2023-05-19T07:18:46;102510.19;;;13.31;52.11
62438;BME280;48481;0.000;0.000;2023-05-19T07:21:12;102513.66;;;13.02;52.88
62438;BME280;48481;0.000;0.000;2023-05-19T07:23:37;102510.31;;;13.10;53.31
62438;BME280;48481;0.000;0.000;2023-05-19T07:26:03;102513.34;;;13.54;51.76
62438;BME280;48481;0.000;0.000;2023-05-19T07:28:28;102511.22;;;13.77;51.20
62438;BME280;48481;0.000;0.000;2023-05-19T07:30:53;102520.66;;;13.42;51.76
62438;BME280;48481;0.000;0.000;2023-05-19T07:33:19;102512.38;;;13.55;51.29
62438;BME280;48481;0.000;0.000;2023-05-19T07:35:44;102513.47;;;13.72;51.44
62438;BME280;48481;0.000;0.000;2023-05-19T07:38:10;102511.69;;;13.53;52.03
62438;BME280;48481;0.000;0.000;2023-05-19T07:40:36;102517.13;;;13.61;51.51
62438;BME280;48481;0.000;0.000;2023-05-19T07:43:02;102520.63;;;13.61;51.27
62438;BME280;48481;0.000;0.000;2023-05-19T07:45:27;102521.22;;;13.07;52.84
62438;BME280;48481;0.000;0.000;2023-05-19T07:47:53;102516.25;;;12.64;54.65
62438;BME280;48481;0.000;0.000;2023-05-19T07:50:18;102510.03;;;13.23;53.85
62438;BME280;48481;0.000;0.000;2023-05-19T07:52:44;102507.31;;;13.71;52.92
62438;BME280;48481;0.000;0.000;2023-05-19T07:55:10;102508.44;;;14.06;51.69
62438;BME280;48481;0.000;0.000;2023-05-19T07:57:36;102503.81;;;14.45;49.60
62438;BME280;48481;0.000;0.000;2023-05-19T08:00:01;102508.41;;;14.15;51.12
62438;BME280;48481;0.000;0.000;2023-05-19T08:02:32;102505.03;;;13.86;51.50
62438;BME280;48481;0.000;0.000;2023-05-19T08:04:57;102502.13;;;14.44;50.46
62438;BME280;48481;0.000;0.000;2023-05-19T08:07:23;102497.25;;;14.29;51.05
62438;BME280;48481;0.000;0.000;2023-05-19T08:09:48;102499.22;;;14.00;51.14
62438;BME280;48481;0.000;0.000;2023-05-19T08:12:13;102500.03;;;14.65;50.00
62438;BME280;48481;0.000;0.000;2023-05-19T08:14:39;102493.81;;;15.10;49.53
62438;BME280;48481;0.000;0.000;2023-05-19T08:17:04;102490.44;;;15.51;47.62
62438;BME280;48481;0.000;0.000;2023-05-19T08:19:30;102497.66;;;15.77;46.24
62438;BME280;48481;0.000;0.000;2023-05-19T08:21:55;102499.81;;;15.55;47.07
62438;BME280;48481;0.000;0.000;2023-05-19T08:24:21;102495.16;;;16.09;45.98
62438;BME280;48481;0.000;0.000;2023-05-19T08:26:47;102493.06;;;16.29;44.36
62438;BME280;48481;0.000;0.000;2023-05-19T08:29:12;102491.19;;;16.22;44.19
62438;BME280;48481;0.000;0.000;2023-05-19T08:31:37;102489.03;;;16.25;44.87
62438;BME280;48481;0.000;0.000;2023-05-19T08:34:03;102491.28;;;16.46;44.40
62438;BME280;48481;0.000;0.000;2023-05-19T08:36:28;102494.31;;;16.59;43.80
62438;BME280;48481;0.000;0.000;2023-05-19T08:38:54;102490.91;;;15.47;46.45
62438;BME280;48481;0.000;0.000;2023-05-19T08:41:20;102487.09;;;15.49;46.36
62438;BME280;48481;0.000;0.000;2023-05-19T08:43:47;102494.78;;;14.91;47.68
62438;BME280;48481;0.000;0.000;2023-05-19T08:46:15;102479.44;;;15.29;46.97
62438;BME280;48481;0.000;0.000;2023-05-19T08:48:41;102484.56;;;14.86;47.50
62438;BME280;48481;0.000;0.000;2023-05-19T08:54:15;102472.75;;;15.68;46.55
62438;BME280;48481;0.000;0.000;2023-05-19T08:56:43;102468.63;;;15.56;46.14
62438;BME280;48481;0.000;0.000;2023-05-19T08:59:09;102463.22;;;15.66;45.63
62438;BME280;48481;0.000;0.000;2023-05-19T09:01:35;102474.13;;;15.54;45.88
62438;BME280;48481;0.000;0.000;2023-05-19T09:04:01;102465.84;;;15.40;46.76
62438;BME280;48481;0.000;0.000;2023-05-19T09:06:27;102459.13;;;15.79;45.79
62438;BME280;48481;0.000;0.000;2023-05-19T09:08:56;102458.97;;;15.81;45.43
62438;BME280;48481;0.000;0.000;2023-05-19T09:11:22;102457.72;;;16.01;46.69
62438;BME280;48481;0.000;0.000;2023-05-19T09:13:47;102452.38;;;16.43;44.65
62438;BME280;48481;0.000;0.000;2023-05-19T09:16:14;102459.72;;;16.49;44.09
62438;BME280;48481;0.000;0.000;2023-05-19T09:18:39;102452.44;;;16.76;43.21
62438;BME280;48481;0.000;0.000;2023-05-19T09:21:17;102450.63;;;17.17;42.38
62438;BME280;48481;0.000;0.000;2023-05-19T09:23:45;102451.25;;;16.70;42.67
62438;BME280;48481;0.000;0.000;2023-05-19T09:26:11;102456.34;;;16.31;43.08
62438;BME280;48481;0.000;0.000;2023-05-19T09:28:36;102456.88;;;16.43;43.39
62438;BME280;48481;0.000;0.000;2023-05-19T09:31:02;102450.66;;;16.26;43.25
62438;BME280;48481;0.000;0.000;2023-05-19T09:33:29;102445.69;;;16.47;42.16
62438;BME280;48481;0.000;0.000;2023-05-19T09:35:55;102450.22;;;16.55;42.91
62438;BME280;48481;0.000;0.000;2023-05-19T09:38:23;102442.25;;;16.71;42.14
62438;BME280;48481;0.000;0.000;2023-05-19T09:40:48;102446.50;;;16.32;42.73
62438;BME280;48481;0.000;0.000;2023-05-19T09:43:14;102455.53;;;16.47;42.41
62438;BME280;48481;0.000;0.000;2023-05-19T09:45:40;102446.47;;;15.81;42.99
62438;BME280;48481;0.000;0.000;2023-05-19T09:48:06;102439.22;;;16.08;42.56
62438;BME280;48481;0.000;0.000;2023-05-19T09:50:32;102450.53;;;16.44;42.93
62438;BME280;48481;0.000;0.000;2023-05-19T09:52:58;102443.56;;;16.67;41.00
62438;BME280;48481;0.000;0.000;2023-05-19T09:55:25;102440.53;;;16.62;40.92
62438;BME280;48481;0.000;0.000;2023-05-19T09:57:54;102434.91;;;16.98;40.08
62438;BME280;48481;0.000;0.000;2023-05-19T10:00:20;102436.56;;;17.23;39.30
62438;BME280;48481;0.000;0.000;2023-05-19T10:02:47;102444.75;;;16.73;40.42
62438;BME280;48481;0.000;0.000;2023-05-19T10:05:18;102438.66;;;16.38;41.40
62438;BME280;48481;0.000;0.000;2023-05-19T10:07:49;102433.31;;;16.46;41.26
62438;BME280;48481;0.000;0.000;2023-05-19T10:10:16;102426.16;;;16.47;40.89
62438;BME280;48481;0.000;0.000;2023-05-19T10:12:42;102425.88;;;16.66;39.80
62438;BME280;48481;0.000;0.000;2023-05-19T10:15:08;102415.53;;;16.96;39.78
62438;BME280;48481;0.000;0.000;2023-05-19T10:17:37;102414.84;;;17.02;39.12
62438;BME280;48481;0.000;0.000;2023-05-19T10:20:03;102410.81;;;16.90;39.52
62438;BME280;48481;0.000;0.000;2023-05-19T10:22:31;102414.81;;;17.18;39.24
62438;BME280;48481;0.000;0.000;2023-05-19T10:24:56;102417.84;;;17.07;38.63
62438;BME280;48481;0.000;0.000;2023-05-19T10:27:22;102406.28;;;16.58;40.54
62438;BME280;48481;0.000;0.000;2023-05-19T10:29:50;102412.97;;;16.62;41.23
62438;BME280;48481;0.000;0.000;2023-05-19T10:32:19;102409.94;;;16.48;40.82
62438;BME280;48481;0.000;0.000;2023-05-19T10:35:35;102398.44;;;16.89;40.65
62438;BME280;48481;0.000;0.000;2023-05-19T10:41:10;102403.31;;;16.77;41.40
62438;BME280;48481;0.000;0.000;2023-05-19T10:43:40;102402.69;;;16.16;41.78
62438;BME280;48481;0.000;0.000;2023-05-19T10:46:08;102393.78;;;16.83;41.10
62438;BME280;48481;0.000;0.000;2023-05-19T10:48:34;102398.78;;;17.10;40.09
62438;BME280;48481;0.000;0.000;2023-05-19T10:51:03;102389.84;;;17.42;38.69
62438;BME280;48481;0.000;0.000;2023-05-19T10:53:32;102400.31;;;16.96;39.83
62438;BME280;48481;0.000;0.000;2023-05-19T10:56:00;102391.06;;;17.23;39.18
62438;BME280;48481;0.000;0.000;2023-05-19T11:01:15;102383.03;;;17.31;40.06
62438;BME280;48481;0.000;0.000;2023-05-19T11:03:51;102382.38;;;16.56;41.18
62438;BME280;48481;0.000;0.000;2023-05-19T11:09:04;102384.44;;;16.95;39.92
62438;BME280;48481;0.000;0.000;2023-05-19T11:11:54;102374.88;;;17.17;39.63
62438;BME280;48481;0.000;0.000;2023-05-19T11:14:22;102377.41;;;16.77;40.40
62438;BME280;48481;0.000;0.000;2023-05-19T11:16:52;102377.38;;;17.18;39.25
62438;BME280;48481;0.000;0.000;2023-05-19T11:19:28;102368.00;;;17.78;39.43
62438;BME280;48481;0.000;0.000;2023-05-19T11:21:55;102368.50;;;17.81;36.63
62438;BME280;48481;0.000;0.000;2023-05-19T11:27:30;102362.78;;;18.38;35.44
62438;BME280;48481;0.000;0.000;2023-05-19T11:29:59;102360.09;;;18.61;35.59
62438;BME280;48481;0.000;0.000;2023-05-19T11:32:29;102355.72;;;18.22;35.33
62438;BME280;48481;0.000;0.000;2023-05-19T11:34:55;102356.19;;;18.26;35.87
62438;BME280;48481;0.000;0.000;2023-05-19T11:37:21;102355.28;;;17.80;37.41
62438;BME280;48481;0.000;0.000;2023-05-19T11:39:46;102356.38;;;18.24;37.20
62438;BME280;48481;0.000;0.000;2023-05-19T11:42:12;102348.19;;;18.63;36.41
62438;BME280;48481;0.000;0.000;2023-05-19T11:44:38;102346.28;;;18.72;33.44
62438;BME280;48481;0.000;0.000;2023-05-19T11:47:05;102353.59;;;18.55;33.12
62438;BME280;48481;0.000;0.000;2023-05-19T11:49:31;102339.38;;;18.32;33.09
62438;BME280;48481;0.000;0.000;2023-05-19T11:51:59;102349.91;;;18.56;33.77
62438;BME280;48481;0.000;0.000;2023-05-19T11:54:31;102346.34;;;18.41;34.47
62438;BME280;48481;0.000;0.000;2023-05-19T11:57:03;102350.81;;;18.49;35.05
62438;BME280;48481;0.000;0.000;2023-05-19T11:59:34;102345.53;;;18.63;33.93
62438;BME280;48481;0.000;0.000;2023-05-19T12:02:22;102342.13;;;18.47;34.44
62438;BME280;48481;0.000;0.000;2023-05-19T12:04:49;102352.22;;;18.82;35.07
62438;BME280;48481;0.000;0.000;2023-05-19T12:07:17;102343.91;;;18.54;34.47
62438;BME280;48481;0.000;0.000;2023-05-19T12:09:43;102348.50;;;18.68;34.62
62438;BME280;48481;0.000;0.000;2023-05-19T12:12:12;102346.44;;;19.08;33.85
62438;BME280;48481;0.000;0.000;2023-05-19T12:14:38;102343.03;;;18.99;32.25
62438;BME280;48481;0.000;0.000;2023-05-19T12:19:37;102331.09;;;19.17;31.79
62438;BME280;48481;0.000;0.000;2023-05-19T12:22:05;102331.22;;;19.53;30.88
62438;BME280;48481;0.000;0.000;2023-05-19T12:24:32;102332.00;;;19.09;33.08
62438;BME280;48481;0.000;0.000;2023-05-19T12:27:24;102326.25;;;19.42;35.00
62438;BME280;48481;0.000;0.000;2023-05-19T12:29:54;102321.66;;;19.65;35.03
62438;BME280;48481;0.000;0.000;2023-05-19T12:32:23;102321.91;;;19.11;33.73
62438;BME280;48481;0.000;0.000;2023-05-19T12:34:50;102322.38;;;19.00;35.36
62438;BME280;48481;0.000;0.000;2023-05-19T12:37:15;102323.59;;;18.97;33.74
62438;BME280;48481;0.000;0.000;2023-05-19T12:39:42;102321.47;;;19.08;33.94
62438;BME280;48481;0.000;0.000;2023-05-19T12:42:08;102319.41;;;19.24;34.71
62438;BME280;48481;0.000;0.000;2023-05-19T12:44:47;102318.50;;;19.17;32.54
62438;BME280;48481;0.000;0.000;2023-05-19T12:47:15;102319.41;;;18.95;34.15
62438;BME280;48481;0.000;0.000;2023-05-19T12:49:54;102317.16;;;18.46;34.73
62438;BME280;48481;0.000;0.000;2023-05-19T12:52:21;102316.16;;;18.24;36.53
62438;BME280;48481;0.000;0.000;2023-05-19T12:55:08;102321.31;;;18.03;35.83
62438;BME280;48481;0.000;0.000;2023-05-19T12:57:47;102314.97;;;17.65;37.20
62438;BME280;48481;0.000;0.000;2023-05-19T13:00:15;102311.22;;;16.96;37.85
62438;BME280;48481;0.000;0.000;2023-05-19T13:05:20;102313.38;;;16.84;38.26
62438;BME280;48481;0.000;0.000;2023-05-19T13:08:03;102318.50;;;17.18;38.35
62438;BME280;48481;0.000;0.000;2023-05-19T13:10:29;102316.00;;;17.64;37.31
62438;BME280;48481;0.000;0.000;2023-05-19T13:12:56;102303.97;;;17.13;38.04
62438;BME280;48481;0.000;0.000;2023-05-19T13:15:23;102304.16;;;17.03;38.21
62438;BME280;48481;0.000;0.000;2023-05-19T13:17:50;102302.59;;;17.25;38.38
62438;BME280;48481;0.000;0.000;2023-05-19T13:20:16;102310.59;;;17.33;37.88
62438;BME280;48481;0.000;0.000;2023-05-19T13:22:41;102303.59;;;17.71;36.99
62438;BME280;48481;0.000;0.000;2023-05-19T13:25:07;102301.59;;;18.19;36.97
62438;BME280;48481;0.000;0.000;2023-05-19T13:27:33;102300.56;;;18.28;37.09
62438;BME280;48481;0.000;0.000;2023-05-19T13:29:59;102303.59;;;17.71;37.98
62438;BME280;48481;0.000;0.000;2023-05-19T13:32:25;102305.81;;;17.90;37.52
62438;BME280;48481;0.000;0.000;2023-05-19T13:34:50;102301.59;;;17.73;37.81
62438;BME280;48481;0.000;0.000;2023-05-19T13:37:16;102303.59;;;17.71;38.37